createdAt,value
2018-09-18T00:03:41.418Z,49.1
2018-09-18T00:08:43.831Z,49.4
2018-09-18T00:13:46.314Z,49.5
2018-09-18T00:18:48.711Z,49.6
2018-09-18T00:23:51.473Z,50.2
2018-09-18T00:28:53.593Z,50.8
2018-09-18T00:33:56.043Z,50.7
2018-09-18T00:38:58.474Z,50.6
2018-09-18T00:49:03.419Z,50.6
2018-09-18T00:54:05.802Z,50.4
2018-09-18T00:59:08.235Z,50.3
2018-09-18T01:04:10.778Z,50.3
2018-09-18T01:09:13.103Z,50.3
2018-09-18T01:14:15.564Z,50.3
2018-09-18T01:19:18.067Z,50.3
2018-09-18T01:24:20.443Z,50.4
2018-09-18T01:29:22.937Z,50.4
2018-09-18T01:34:25.362Z,50.4
2018-09-18T01:39:27.781Z,50.4
2018-09-18T01:44:30.285Z,50.6
2018-09-18T01:49:32.645Z,50.9
2018-09-18T01:54:35.094Z,51
2018-09-18T01:59:37.611Z,51.1
2018-09-18T02:04:40.088Z,51.2
2018-09-18T02:09:42.394Z,51.5
2018-09-18T02:14:45.003Z,51.7
2018-09-18T02:19:47.335Z,51.8
2018-09-18T02:24:49.723Z,51.9
2018-09-18T02:29:52.249Z,51.9
2018-09-18T02:34:54.630Z,51.7
2018-09-18T02:39:57.065Z,51.5
2018-09-18T02:44:59.526Z,51.6
2018-09-18T02:50:06.942Z,51.8
2018-09-18T02:55:04.396Z,51.9
2018-09-18T03:00:06.861Z,52
2018-09-18T03:05:09.273Z,52.2
2018-09-18T03:10:11.723Z,52.4
2018-09-18T03:15:14.132Z,53.4
2018-09-18T03:20:16.575Z,53.9
2018-09-18T03:25:19.054Z,54.3
2018-09-18T03:30:21.463Z,54
2018-09-18T03:35:23.949Z,53.7
2018-09-18T03:40:26.427Z,53.1
2018-09-18T03:45:28.780Z,52.9
2018-09-18T03:50:31.333Z,52.9
2018-09-18T03:55:33.701Z,53
2018-09-18T04:00:36.207Z,53.1
2018-09-18T04:05:43.970Z,53.2
2018-09-18T04:10:41.041Z,53.3
2018-09-18T04:15:43.433Z,53.4
2018-09-18T04:20:45.902Z,53.6
2018-09-18T04:25:48.364Z,53.8
2018-09-18T04:30:50.842Z,53.9
2018-09-18T04:35:53.297Z,54.1
2018-09-18T04:40:55.632Z,54.3
2018-09-18T04:45:58.157Z,54.3
2018-09-18T04:51:00.536Z,54.7
2018-09-18T04:56:02.996Z,54.8
2018-09-18T05:01:05.396Z,54.9
2018-09-18T05:06:07.828Z,54.9
2018-09-18T05:11:10.253Z,55
2018-09-18T05:16:12.703Z,55.3
2018-09-18T05:21:15.144Z,55.4
2018-09-18T05:26:17.590Z,55.6
2018-09-18T05:31:20.032Z,55.7
2018-09-18T05:36:22.486Z,55.9
2018-09-18T05:41:25.176Z,56.1
2018-09-18T05:46:27.377Z,56.2
2018-09-18T05:51:29.861Z,56.3
2018-09-18T05:56:32.221Z,56.4
2018-09-18T06:01:34.659Z,56.6
2018-09-18T06:06:37.150Z,56.8
2018-09-18T06:11:39.538Z,56.9
2018-09-18T06:16:42.071Z,57.1
2018-09-18T06:21:44.417Z,57.2
2018-09-18T06:26:46.942Z,57.4
2018-09-18T06:31:49.316Z,57.6
2018-09-18T06:36:51.801Z,57.9
2018-09-18T06:41:54.200Z,58.1
2018-09-18T06:46:56.632Z,58.3
2018-09-18T06:51:59.055Z,58.6
2018-09-18T06:57:01.644Z,58.8
2018-09-18T07:02:04.062Z,59.1
2018-09-18T07:07:06.418Z,59.5
2018-09-18T07:12:08.832Z,60.3
2018-09-18T07:17:11.288Z,62.3
2018-09-18T07:22:13.763Z,63.3
2018-09-18T07:27:16.142Z,63.4
2018-09-18T07:32:18.582Z,63.4
2018-09-18T07:37:21.131Z,63.6
2018-09-18T07:42:23.489Z,64.2
2018-09-18T07:47:26.017Z,64.3
2018-09-18T07:52:28.407Z,64.1
2018-09-18T07:57:30.817Z,64.3
2018-09-18T08:02:33.273Z,64.4
2018-09-18T08:07:35.719Z,63.9
2018-09-18T08:12:38.313Z,63.7
2018-09-18T08:17:40.619Z,63.1
2018-09-18T08:22:43.070Z,62.9
2018-09-18T08:27:45.426Z,63.1
2018-09-18T08:32:47.927Z,62
2018-09-18T08:42:52.796Z,58.9
2018-09-18T08:47:55.259Z,57.5
2018-09-18T08:52:57.721Z,57
2018-09-18T08:58:00.160Z,56.1
2018-09-18T09:03:02.576Z,54.7
2018-09-18T09:08:05.117Z,53.6
2018-09-18T09:13:07.662Z,52.2
2018-09-18T09:18:09.961Z,51.8
2018-09-18T09:23:12.309Z,50.8
2018-09-18T09:28:14.835Z,50.6
2018-09-18T09:33:17.202Z,49
2018-09-18T09:38:19.709Z,48.5
2018-09-18T09:43:22.375Z,48.5
2018-09-18T09:48:24.768Z,48.5
2018-09-18T09:53:27.003Z,47.5
2018-09-18T09:58:29.384Z,46.5
2018-09-18T10:03:31.843Z,45.2
2018-09-18T10:08:34.280Z,44.7
2018-09-18T10:13:36.710Z,44.5
2018-09-18T10:18:39.338Z,43.8
2018-09-18T10:23:41.638Z,43.5
2018-09-18T10:28:44.039Z,43.9
2018-09-18T10:38:48.908Z,42.5
2018-09-18T10:43:51.693Z,42.2
2018-09-18T10:48:53.805Z,42
2018-09-18T10:53:56.218Z,41.7
2018-09-18T10:58:58.709Z,41.6
2018-09-18T11:04:01.224Z,41.2
2018-09-18T11:09:03.641Z,40
2018-09-18T11:14:06.371Z,39.1
2018-09-18T11:19:08.514Z,39.7
2018-09-18T11:24:11.005Z,39.2
2018-09-18T11:29:13.366Z,36.2
2018-09-18T11:34:15.802Z,37
2018-09-18T11:39:18.285Z,36.7
2018-09-18T11:44:20.734Z,36.3
2018-09-18T11:49:23.114Z,35.6
2018-09-18T11:54:25.616Z,33.6
2018-09-18T11:59:28.127Z,34.2
2018-09-18T12:04:30.523Z,33.6
2018-09-18T12:09:32.873Z,31.4
2018-09-18T12:14:35.311Z,29.7
2018-09-18T12:19:37.872Z,29.2
2018-09-18T12:24:40.193Z,29
2018-09-18T12:29:42.644Z,28.1
2018-09-18T12:34:45.108Z,28.1
2018-09-18T12:39:47.567Z,28.3
2018-09-18T12:44:49.969Z,27.5
2018-09-18T12:49:52.666Z,26
2018-09-18T12:54:54.930Z,26.2
2018-09-18T12:59:57.594Z,25
2018-09-18T13:05:00.001Z,25.2
2018-09-18T13:10:02.382Z,23.9
2018-09-18T13:15:04.698Z,24.2
2018-09-18T13:20:07.296Z,24.2
2018-09-18T13:25:09.497Z,24.2
2018-09-18T13:30:11.983Z,24.2
2018-09-18T13:35:14.450Z,23.5
2018-09-18T13:40:16.919Z,23.2
2018-09-18T13:45:19.363Z,22.6
2018-09-18T13:50:21.834Z,23.4
2018-09-18T13:55:24.216Z,22.7
2018-09-18T14:00:26.883Z,21.4
2018-09-18T14:05:29.133Z,21.3
2018-09-18T14:10:31.500Z,19.9
2018-09-18T14:15:34.002Z,20.1
2018-09-18T14:20:36.394Z,20.3
2018-09-18T14:25:38.911Z,19.3
2018-09-18T14:30:41.365Z,19.2
2018-09-18T14:35:43.792Z,19.4
2018-09-18T14:40:46.143Z,18.3
2018-09-18T14:45:48.636Z,18
2018-09-18T14:50:51.133Z,18.2
2018-09-18T14:55:53.454Z,17.8
2018-09-18T15:00:56.198Z,18.2
2018-09-18T15:05:58.397Z,17.9
2018-09-18T15:11:00.859Z,17.5
2018-09-18T15:16:03.258Z,17.8
2018-09-18T15:21:05.713Z,17.7
2018-09-18T15:26:08.145Z,18.3
2018-09-18T15:31:10.759Z,18.7
2018-09-18T15:36:13.018Z,18.8
2018-09-18T15:41:15.462Z,19.2
2018-09-18T15:46:17.961Z,19.5
2018-09-18T15:51:20.376Z,20.1
2018-09-18T15:56:22.834Z,21.3
2018-09-18T16:01:25.344Z,22.3
2018-09-18T16:06:28.030Z,22.9
2018-09-18T16:11:30.236Z,23.2
2018-09-18T16:16:32.619Z,24
2018-09-18T16:21:35.057Z,24.3
2018-09-18T16:26:37.444Z,25.4
2018-09-18T16:31:39.915Z,26.1
2018-09-18T16:36:42.366Z,26.9
2018-09-18T16:41:45.218Z,28
2018-09-18T16:46:47.359Z,28.6
2018-09-18T16:51:49.665Z,29.2
2018-09-18T16:56:52.136Z,29.8
2018-09-18T17:01:54.542Z,30.6
2018-09-18T17:06:57.285Z,31
2018-09-18T17:11:59.436Z,31.5
2018-09-18T17:17:01.913Z,31.8
2018-09-18T17:22:04.337Z,32.2
2018-09-18T17:27:06.756Z,32.8
2018-09-18T17:32:09.202Z,33
2018-09-18T17:37:11.775Z,33.3
2018-09-18T17:42:14.102Z,33.8
2018-09-18T17:47:16.588Z,34.1
2018-09-18T17:52:19.039Z,34.5
2018-09-18T17:57:21.492Z,34.9
2018-09-18T18:02:23.938Z,35.2
2018-09-18T18:07:26.289Z,35.3
2018-09-18T18:12:28.767Z,35.3
2018-09-18T18:17:31.229Z,35.5
2018-09-18T18:22:33.639Z,35.6
2018-09-18T18:27:36.151Z,35.8
2018-09-18T18:32:38.529Z,35.9
2018-09-18T18:37:40.981Z,36.1
2018-09-18T18:42:43.652Z,36.4
2018-09-18T18:47:46.004Z,36.7
2018-09-18T18:52:48.273Z,37.1
2018-09-18T18:57:50.722Z,37.3
2018-09-18T19:02:53.412Z,37.7
2018-09-18T19:07:55.656Z,38
2018-09-18T19:12:58.042Z,38.3
2018-09-18T19:18:00.609Z,38.6
2018-09-18T19:23:02.931Z,38.8
2018-09-18T19:28:05.439Z,39
2018-09-18T19:33:07.967Z,38.8
2018-09-18T19:43:12.790Z,39.4
2018-09-18T19:48:15.153Z,39.9
2018-09-18T19:53:17.586Z,40.2
2018-09-18T19:58:20.005Z,40.5
2018-09-18T20:03:22.555Z,40.8
2018-09-18T20:08:24.973Z,41.2
2018-09-18T20:13:27.461Z,41.8
2018-09-18T20:18:29.768Z,42.2
2018-09-18T20:28:34.702Z,42.7
2018-09-18T20:33:37.174Z,42.9
2018-09-18T20:38:39.799Z,43.3
2018-09-18T20:43:42.152Z,43.7
2018-09-18T20:48:44.451Z,44
2018-09-18T20:53:46.856Z,44.2
2018-09-18T20:58:49.299Z,44.4
2018-09-18T21:03:51.836Z,44.5
2018-09-18T21:08:54.185Z,44.7
2018-09-18T21:13:57.261Z,45.1
2018-09-18T21:18:59.093Z,45.7
2018-09-18T21:24:01.564Z,45.7
2018-09-18T21:29:03.962Z,45.4
2018-09-18T21:34:06.454Z,45.4
2018-09-18T21:39:08.840Z,45.5
2018-09-18T21:44:12.567Z,45.9
2018-09-18T21:49:13.716Z,45.8
2018-09-18T21:54:16.254Z,45.8
2018-09-18T21:59:18.710Z,45.9
2018-09-18T22:04:21.139Z,45.9
2018-09-18T22:09:23.504Z,46
2018-09-18T22:14:26.091Z,46.3
2018-09-18T22:19:28.378Z,46.5
2018-09-18T22:24:30.836Z,46.8
2018-09-18T22:29:33.310Z,47
2018-09-18T22:34:35.680Z,47.1
2018-09-18T22:39:38.126Z,47.3
2018-09-18T22:44:40.580Z,47.5
2018-09-18T22:49:43.025Z,47.5
2018-09-18T22:54:45.433Z,47.8
2018-09-18T22:59:47.891Z,48
2018-09-18T23:04:50.566Z,48.2
2018-09-18T23:09:52.957Z,48.4
2018-09-18T23:14:55.203Z,48.6
2018-09-18T23:19:57.687Z,48.7
2018-09-18T23:25:00.154Z,49
2018-09-18T23:30:02.748Z,49.4
2018-09-18T23:35:05.044Z,49.5
2018-09-18T23:40:07.775Z,49.5
2018-09-18T23:45:09.882Z,49.6
2018-09-18T23:55:14.762Z,50.2
